sensor_id;sensor_type;location;lat;lon;timestamp;pressure;altitude;pressure_sealevel;temperature;humidity
54588;BME280;40484;50.198;19.576;2022-08-01T00:02:17;101501.98;;;18.98;64.17
54588;BME280;40484;50.198;19.576;2022-08-01T00:07:19;101492.20;;;18.85;64.46
54588;BME280;40484;50.198;19.576;2022-08-01T00:12:20;101490.05;;;18.87;64.38
54588;BME280;40484;50.198;19.576;2022-08-01T00:17:22;101492.30;;;18.81;64.53
54588;BME280;40484;50.198;19.576;2022-08-01T00:22:49;101493.47;;;18.94;64.22
54588;BME280;40484;50.198;19.576;2022-08-01T00:27:50;101485.77;;;18.98;64.11
54588;BME280;40484;50.198;19.576;2022-08-01T00:32:52;101481.65;;;18.86;64.49
54588;BME280;40484;50.198;19.576;2022-08-01T00:37:53;101486.71;;;18.85;64.64
54588;BME280;40484;50.198;19.576;2022-08-01T00:42:55;101482.80;;;18.74;64.78
54588;BME280;40484;50.198;19.576;2022-08-01T00:47:57;101475.69;;;18.69;64.75
54588;BME280;40484;50.198;19.576;2022-08-01T00:52:59;101478.79;;;18.74;64.49
54588;BME280;40484;50.198;19.576;2022-08-01T00:58:01;101483.52;;;18.58;64.85
54588;BME280;40484;50.198;19.576;2022-08-01T01:03:03;101479.23;;;18.62;64.73
54588;BME280;40484;50.198;19.576;2022-08-01T01:08:11;101484.71;;;18.62;64.79
54588;BME280;40484;50.198;19.576;2022-08-01T01:13:17;101489.73;;;18.63;64.70
54588;BME280;40484;50.198;19.576;2022-08-01T01:18:24;101487.34;;;18.76;64.39
54588;BME280;40484;50.198;19.576;2022-08-01T01:23:49;101488.34;;;18.80;64.30
54588;BME280;40484;50.198;19.576;2022-08-01T01:29:17;101490.66;;;18.78;64.37
54588;BME280;40484;50.198;19.576;2022-08-01T01:34:44;101491.89;;;18.89;64.01
54588;BME280;40484;50.198;19.576;2022-08-01T01:39:48;101494.38;;;18.91;64.10
54588;BME280;40484;50.198;19.576;2022-08-01T01:44:51;101499.62;;;18.91;63.93
54588;BME280;40484;50.198;19.576;2022-08-01T01:49:54;101498.77;;;18.93;63.94
54588;BME280;40484;50.198;19.576;2022-08-01T01:54:58;101493.29;;;18.93;63.87
54588;BME280;40484;50.198;19.576;2022-08-01T02:00:01;101495.00;;;19.00;63.50
54588;BME280;40484;50.198;19.576;2022-08-01T02:05:04;101495.56;;;18.77;64.00
54588;BME280;40484;50.198;19.576;2022-08-01T02:10:07;101492.50;;;18.91;63.68
54588;BME280;40484;50.198;19.576;2022-08-01T02:15:11;101486.41;;;18.98;63.42
54588;BME280;40484;50.198;19.576;2022-08-01T02:20:14;101482.50;;;18.86;63.61
54588;BME280;40484;50.198;19.576;2022-08-01T02:25:29;101488.80;;;18.76;63.78
54588;BME280;40484;50.198;19.576;2022-08-01T02:30:30;101490.19;;;18.70;64.13
54588;BME280;40484;50.198;19.576;2022-08-01T02:35:33;101494.09;;;18.85;63.64
54588;BME280;40484;50.198;19.576;2022-08-01T02:40:36;101509.00;;;18.68;63.97
54588;BME280;40484;50.198;19.576;2022-08-01T02:45:41;101506.28;;;18.57;64.02
54588;BME280;40484;50.198;19.576;2022-08-01T02:50:43;101490.56;;;18.54;64.23
54588;BME280;40484;50.198;19.576;2022-08-01T02:56:10;101494.96;;;18.56;64.12
54588;BME280;40484;50.198;19.576;2022-08-01T03:01:13;101501.09;;;18.55;64.27
54588;BME280;40484;50.198;19.576;2022-08-01T03:06:16;101506.06;;;18.78;63.54
54588;BME280;40484;50.198;19.576;2022-08-01T03:11:19;101495.38;;;18.64;63.80
54588;BME280;40484;50.198;19.576;2022-08-01T03:16:22;101492.96;;;18.69;63.49
54588;BME280;40484;50.198;19.576;2022-08-01T03:21:25;101490.40;;;18.81;63.16
54588;BME280;40484;50.198;19.576;2022-08-01T03:26:30;101497.80;;;18.89;62.81
54588;BME280;40484;50.198;19.576;2022-08-01T03:31:36;101505.09;;;18.75;62.84
54588;BME280;40484;50.198;19.576;2022-08-01T03:36:43;101508.08;;;18.61;63.26
54588;BME280;40484;50.198;19.576;2022-08-01T03:41:43;101512.95;;;18.70;63.12
54588;BME280;40484;50.198;19.576;2022-08-01T03:46:49;101506.00;;;18.90;62.68
54588;BME280;40484;50.198;19.576;2022-08-01T03:51:51;101511.63;;;19.00;62.41
54588;BME280;40484;50.198;19.576;2022-08-01T03:56:54;101523.98;;;18.85;62.62
54588;BME280;40484;50.198;19.576;2022-08-01T04:01:57;101526.39;;;18.62;63.01
54588;BME280;40484;50.198;19.576;2022-08-01T04:06:59;101532.13;;;18.60;62.91
54588;BME280;40484;50.198;19.576;2022-08-01T04:12:03;101532.59;;;18.48;63.29
54588;BME280;40484;50.198;19.576;2022-08-01T04:17:05;101540.77;;;18.49;63.58
54588;BME280;40484;50.198;19.576;2022-08-01T04:22:33;101540.67;;;18.84;63.02
54588;BME280;40484;50.198;19.576;2022-08-01T04:27:36;101542.60;;;18.92;62.85
54588;BME280;40484;50.198;19.576;2022-08-01T04:32:39;101545.54;;;18.82;63.06
54588;BME280;40484;50.198;19.576;2022-08-01T04:37:42;101540.05;;;18.83;63.33
54588;BME280;40484;50.198;19.576;2022-08-01T04:42:44;101539.30;;;18.80;63.63
54588;BME280;40484;50.198;19.576;2022-08-01T04:47:48;101538.52;;;18.76;63.87
54588;BME280;40484;50.198;19.576;2022-08-01T04:52:50;101543.51;;;18.89;63.59
54588;BME280;40484;50.198;19.576;2022-08-01T04:57:53;101542.72;;;18.87;63.75
54588;BME280;40484;50.198;19.576;2022-08-01T05:02:54;101535.19;;;19.02;63.55
54588;BME280;40484;50.198;19.576;2022-08-01T05:07:56;101542.84;;;19.00;63.62
54588;BME280;40484;50.198;19.576;2022-08-01T05:12:58;101539.47;;;19.18;63.33
54588;BME280;40484;50.198;19.576;2022-08-01T05:17:59;101542.07;;;19.48;62.73
54588;BME280;40484;50.198;19.576;2022-08-01T05:23:01;101540.45;;;19.54;62.73
54588;BME280;40484;50.198;19.576;2022-08-01T05:28:03;101539.09;;;19.75;62.37
54588;BME280;40484;50.198;19.576;2022-08-01T05:33:05;101532.59;;;20.04;61.96
54588;BME280;40484;50.198;19.576;2022-08-01T05:38:06;101533.33;;;20.52;61.25
54588;BME280;40484;50.198;19.576;2022-08-01T05:43:08;101533.12;;;20.87;60.26
54588;BME280;40484;50.198;19.576;2022-08-01T05:48:09;101535.92;;;21.17;59.30
54588;BME280;40484;50.198;19.576;2022-08-01T05:53:11;101531.96;;;20.97;58.98
54588;BME280;40484;50.198;19.576;2022-08-01T05:58:12;101532.51;;;21.06;58.75
54588;BME280;40484;50.198;19.576;2022-08-01T06:03:40;101533.33;;;21.13;58.64
54588;BME280;40484;50.198;19.576;2022-08-01T06:08:42;101535.27;;;21.24;58.28
54588;BME280;40484;50.198;19.576;2022-08-01T06:13:43;101541.27;;;21.23;57.58
54588;BME280;40484;50.198;19.576;2022-08-01T06:18:45;101554.61;;;21.35;57.76
54588;BME280;40484;50.198;19.576;2022-08-01T06:23:47;101557.01;;;21.26;57.59
54588;BME280;40484;50.198;19.576;2022-08-01T06:28:48;101557.25;;;21.25;57.39
54588;BME280;40484;50.198;19.576;2022-08-01T06:33:50;101552.66;;;21.43;57.21
54588;BME280;40484;50.198;19.576;2022-08-01T06:38:52;101564.63;;;21.59;56.50
54588;BME280;40484;50.198;19.576;2022-08-01T06:43:53;101565.04;;;21.53;55.79
54588;BME280;40484;50.198;19.576;2022-08-01T06:48:55;101569.86;;;21.72;55.24
54588;BME280;40484;50.198;19.576;2022-08-01T06:53:56;101567.01;;;21.81;54.61
54588;BME280;40484;50.198;19.576;2022-08-01T06:58:58;101574.52;;;21.91;54.12
54588;BME280;40484;50.198;19.576;2022-08-01T07:04:02;101568.06;;;22.05;52.43
54588;BME280;40484;50.198;19.576;2022-08-01T07:09:03;101571.86;;;22.12;51.93
54588;BME280;40484;50.198;19.576;2022-08-01T07:14:05;101568.64;;;22.43;53.14
54588;BME280;40484;50.198;19.576;2022-08-01T07:19:07;101573.43;;;22.56;52.57
54588;BME280;40484;50.198;19.576;2022-08-01T07:24:10;101580.12;;;22.47;50.58
54588;BME280;40484;50.198;19.576;2022-08-01T07:29:16;101587.77;;;22.46;50.50
54588;BME280;40484;50.198;19.576;2022-08-01T07:34:17;101588.74;;;22.43;50.56
54588;BME280;40484;50.198;19.576;2022-08-01T07:39:19;101583.22;;;22.87;50.06
54588;BME280;40484;50.198;19.576;2022-08-01T07:44:48;101576.62;;;23.05;47.10
54588;BME280;40484;50.198;19.576;2022-08-01T07:49:50;101569.05;;;23.24;49.19
54588;BME280;40484;50.198;19.576;2022-08-01T07:54:53;101580.36;;;23.08;45.28
54588;BME280;40484;50.198;19.576;2022-08-01T07:59:57;101576.58;;;23.12;45.31
54588;BME280;40484;50.198;19.576;2022-08-01T08:04:59;101565.20;;;23.46;43.94
54588;BME280;40484;50.198;19.576;2022-08-01T08:10:00;101561.48;;;23.68;41.90
54588;BME280;40484;50.198;19.576;2022-08-01T08:15:02;101558.28;;;23.85;41.97
54588;BME280;40484;50.198;19.576;2022-08-01T08:20:07;101561.40;;;23.90;41.44
54588;BME280;40484;50.198;19.576;2022-08-01T08:25:09;101569.99;;;23.93;43.68
54588;BME280;40484;50.198;19.576;2022-08-01T08:30:12;101573.80;;;23.93;44.35
54588;BME280;40484;50.198;19.576;2022-08-01T08:35:18;101582.99;;;23.97;44.55
54588;BME280;40484;50.198;19.576;2022-08-01T08:40:23;101581.93;;;24.11;45.17
54588;BME280;40484;50.198;19.576;2022-08-01T08:45:24;101571.72;;;24.26;44.76
54588;BME280;40484;50.198;19.576;2022-08-01T08:50:28;101570.88;;;24.30;43.68
54588;BME280;40484;50.198;19.576;2022-08-01T08:55:30;101577.01;;;24.22;42.60
54588;BME280;40484;50.198;19.576;2022-08-01T09:00:32;101580.55;;;24.37;42.56
54588;BME280;40484;50.198;19.576;2022-08-01T09:05:35;101578.95;;;24.59;42.36
54588;BME280;40484;50.198;19.576;2022-08-01T09:10:36;101575.55;;;24.64;42.76
54588;BME280;40484;50.198;19.576;2022-08-01T09:16:05;101575.09;;;24.95;41.84
54588;BME280;40484;50.198;19.576;2022-08-01T09:31:26;101579.46;;;25.41;40.47
54588;BME280;40484;50.198;19.576;2022-08-01T11:16:58;101590.25;;;25.81;40.92
54588;BME280;40484;50.198;19.576;2022-08-01T11:27:17;101591.90;;;25.99;42.54
54588;BME280;40484;50.198;19.576;2022-08-01T11:32:26;101592.83;;;25.81;43.05
54588;BME280;40484;50.198;19.576;2022-08-01T11:37:29;101592.21;;;26.13;43.13
54588;BME280;40484;50.198;19.576;2022-08-01T11:42:30;101590.89;;;26.14;42.98
54588;BME280;40484;50.198;19.576;2022-08-01T11:47:48;101584.47;;;26.06;43.11
54588;BME280;40484;50.198;19.576;2022-08-01T11:52:56;101592.28;;;26.40;41.80
54588;BME280;40484;50.198;19.576;2022-08-01T11:58:04;101597.39;;;26.44;42.24
54588;BME280;40484;50.198;19.576;2022-08-01T12:03:04;101591.34;;;26.41;42.22
54588;BME280;40484;50.198;19.576;2022-08-01T12:08:32;101588.58;;;26.62;41.17
54588;BME280;40484;50.198;19.576;2022-08-01T12:13:43;101598.26;;;26.47;41.90
54588;BME280;40484;50.198;19.576;2022-08-01T12:18:43;101596.55;;;26.48;42.43
54588;BME280;40484;50.198;19.576;2022-08-01T12:23:45;101593.45;;;26.26;41.15
54588;BME280;40484;50.198;19.576;2022-08-01T12:28:47;101594.79;;;26.25;40.61
54588;BME280;40484;50.198;19.576;2022-08-01T12:33:48;101593.66;;;26.34;40.88
54588;BME280;40484;50.198;19.576;2022-08-01T12:38:53;101595.11;;;26.39;40.22
54588;BME280;40484;50.198;19.576;2022-08-01T12:43:55;101600.91;;;26.26;40.51
54588;BME280;40484;50.198;19.576;2022-08-01T12:48:57;101587.39;;;26.20;41.49
54588;BME280;40484;50.198;19.576;2022-08-01T12:53:59;101584.37;;;26.32;39.79
54588;BME280;40484;50.198;19.576;2022-08-01T12:59:00;101585.60;;;26.50;40.83
54588;BME280;40484;50.198;19.576;2022-08-01T13:04:03;101583.34;;;26.79;40.06
54588;BME280;40484;50.198;19.576;2022-08-01T13:09:06;101576.74;;;27.01;41.66
54588;BME280;40484;50.198;19.576;2022-08-01T13:14:08;101580.16;;;27.31;40.67
54588;BME280;40484;50.198;19.576;2022-08-01T13:19:10;101566.09;;;27.57;40.76
54588;BME280;40484;50.198;19.576;2022-08-01T13:24:13;101560.59;;;27.45;40.49
54588;BME280;40484;50.198;19.576;2022-08-01T13:29:20;101559.13;;;27.63;39.60
54588;BME280;40484;50.198;19.576;2022-08-01T13:34:34;101559.50;;;27.70;39.83
54588;BME280;40484;50.198;19.576;2022-08-01T13:40:00;101559.95;;;28.16;40.31
54588;BME280;40484;50.198;19.576;2022-08-01T13:45:03;101548.80;;;28.78;39.15
54588;BME280;40484;50.198;19.576;2022-08-01T13:50:05;101550.84;;;28.90;38.52
54588;BME280;40484;50.198;19.576;2022-08-01T13:55:07;101546.33;;;28.53;38.36
54588;BME280;40484;50.198;19.576;2022-08-01T14:00:09;101554.76;;;27.96;38.38
54588;BME280;40484;50.198;19.576;2022-08-01T14:05:11;101550.30;;;27.74;38.51
54588;BME280;40484;50.198;19.576;2022-08-01T14:10:13;101562.86;;;27.83;39.11
54588;BME280;40484;50.198;19.576;2022-08-01T14:15:15;101558.65;;;28.10;39.19
54588;BME280;40484;50.198;19.576;2022-08-01T14:20:17;101570.43;;;28.16;38.54
54588;BME280;40484;50.198;19.576;2022-08-01T14:25:20;101573.51;;;28.22;38.25
54588;BME280;40484;50.198;19.576;2022-08-01T14:30:22;101573.87;;;28.09;38.47
54588;BME280;40484;50.198;19.576;2022-08-01T14:35:23;101584.43;;;27.97;38.54
54588;BME280;40484;50.198;19.576;2022-08-01T14:40:25;101584.48;;;28.10;38.08
54588;BME280;40484;50.198;19.576;2022-08-01T14:45:27;101582.71;;;28.28;38.33
54588;BME280;40484;50.198;19.576;2022-08-01T14:50:29;101572.56;;;28.13;38.34
54588;BME280;40484;50.198;19.576;2022-08-01T14:55:31;101585.61;;;27.95;38.76
54588;BME280;40484;50.198;19.576;2022-08-01T15:00:33;101570.83;;;28.06;39.49
54588;BME280;40484;50.198;19.576;2022-08-01T15:05:35;101577.62;;;28.35;38.94
54588;BME280;40484;50.198;19.576;2022-08-01T15:10:37;101574.97;;;28.01;39.35
54588;BME280;40484;50.198;19.576;2022-08-01T15:15:38;101576.33;;;28.11;39.54
54588;BME280;40484;50.198;19.576;2022-08-01T15:21:08;101572.45;;;28.53;38.57
54588;BME280;40484;50.198;19.576;2022-08-01T15:26:09;101583.71;;;28.71;38.54
54588;BME280;40484;50.198;19.576;2022-08-01T15:31:13;101576.22;;;28.74;38.67
54588;BME280;40484;50.198;19.576;2022-08-01T15:36:14;101581.69;;;28.62;39.03
54588;BME280;40484;50.198;19.576;2022-08-01T15:41:16;101583.99;;;28.42;39.51
54588;BME280;40484;50.198;19.576;2022-08-01T15:46:17;101582.94;;;28.07;40.49
54588;BME280;40484;50.198;19.576;2022-08-01T15:51:19;101576.10;;;28.04;40.54
54588;BME280;40484;50.198;19.576;2022-08-01T15:56:21;101570.52;;;27.94;40.76
54588;BME280;40484;50.198;19.576;2022-08-01T16:01:22;101568.71;;;27.77;41.14
54588;BME280;40484;50.198;19.576;2022-08-01T16:06:25;101574.59;;;27.71;41.76
54588;BME280;40484;50.198;19.576;2022-08-01T16:11:27;101582.21;;;27.55;42.24
54588;BME280;40484;50.198;19.576;2022-08-01T16:16:28;101583.98;;;27.24;42.89
54588;BME280;40484;50.198;19.576;2022-08-01T16:21:30;101586.24;;;27.22;43.27
54588;BME280;40484;50.198;19.576;2022-08-01T16:26:31;101594.71;;;27.24;43.52
54588;BME280;40484;50.198;19.576;2022-08-01T16:31:33;101606.99;;;27.14;44.46
54588;BME280;40484;50.198;19.576;2022-08-01T16:36:35;101613.16;;;26.95;46.51
54588;BME280;40484;50.198;19.576;2022-08-01T16:41:36;101603.78;;;27.02;48.34
54588;BME280;40484;50.198;19.576;2022-08-01T16:46:38;101601.75;;;27.31;47.83
54588;BME280;40484;50.198;19.576;2022-08-01T16:51:40;101610.07;;;27.39;49.21
54588;BME280;40484;50.198;19.576;2022-08-01T16:56:42;101612.29;;;27.41;49.36
54588;BME280;40484;50.198;19.576;2022-08-01T17:01:43;101615.78;;;27.40;49.47
54588;BME280;40484;50.198;19.576;2022-08-01T17:07:12;101619.23;;;27.43;49.45
54588;BME280;40484;50.198;19.576;2022-08-01T17:12:14;101620.31;;;27.42;49.41
54588;BME280;40484;50.198;19.576;2022-08-01T17:17:15;101624.49;;;27.26;49.84
54588;BME280;40484;50.198;19.576;2022-08-01T17:22:17;101628.98;;;27.13;50.05
54588;BME280;40484;50.198;19.576;2022-08-01T17:27:19;101625.04;;;27.00;50.00
54588;BME280;40484;50.198;19.576;2022-08-01T17:32:20;101624.65;;;26.80;50.12
54588;BME280;40484;50.198;19.576;2022-08-01T17:37:22;101628.05;;;26.68;50.07
54588;BME280;40484;50.198;19.576;2022-08-01T17:42:23;101629.30;;;26.45;50.45
54588;BME280;40484;50.198;19.576;2022-08-01T17:47:27;101628.20;;;26.21;51.10
54588;BME280;40484;50.198;19.576;2022-08-01T17:52:30;101632.73;;;26.17;51.50
54588;BME280;40484;50.198;19.576;2022-08-01T17:57:32;101630.66;;;26.28;51.54
54588;BME280;40484;50.198;19.576;2022-08-01T18:02:33;101641.37;;;26.39;51.34
54588;BME280;40484;50.198;19.576;2022-08-01T18:07:35;101648.52;;;26.44;51.25
54588;BME280;40484;50.198;19.576;2022-08-01T18:12:36;101654.81;;;26.51;51.04
54588;BME280;40484;50.198;19.576;2022-08-01T18:17:38;101664.36;;;26.60;51.08
54588;BME280;40484;50.198;19.576;2022-08-01T18:22:39;101666.46;;;26.56;51.07
54588;BME280;40484;50.198;19.576;2022-08-01T18:27:41;101663.59;;;26.54;51.21
54588;BME280;40484;50.198;19.576;2022-08-01T18:32:43;101664.05;;;26.41;51.50
54588;BME280;40484;50.198;19.576;2022-08-01T18:37:44;101656.11;;;26.38;51.70
54588;BME280;40484;50.198;19.576;2022-08-01T18:42:46;101664.11;;;26.44;51.67
54588;BME280;40484;50.198;19.576;2022-08-01T18:47:48;101662.69;;;26.47;51.54
54588;BME280;40484;50.198;19.576;2022-08-01T18:53:16;101672.17;;;26.45;51.19
54588;BME280;40484;50.198;19.576;2022-08-01T18:58:19;101678.41;;;26.40;51.31
54588;BME280;40484;50.198;19.576;2022-08-01T19:03:23;101683.77;;;26.43;51.26
54588;BME280;40484;50.198;19.576;2022-08-01T19:08:27;101685.74;;;26.46;51.14
54588;BME280;40484;50.198;19.576;2022-08-01T19:13:28;101685.26;;;26.43;50.97
54588;BME280;40484;50.198;19.576;2022-08-01T19:18:31;101695.14;;;26.25;51.19
54588;BME280;40484;50.198;19.576;2022-08-01T19:23:34;101692.49;;;26.22;51.32
54588;BME280;40484;50.198;19.576;2022-08-01T19:29:16;101694.14;;;26.12;51.61
54588;BME280;40484;50.198;19.576;2022-08-01T19:34:19;101706.15;;;26.14;51.40
54588;BME280;40484;50.198;19.576;2022-08-01T19:39:23;101705.26;;;25.81;51.65
54588;BME280;40484;50.198;19.576;2022-08-01T19:44:27;101702.20;;;25.82;51.50
54588;BME280;40484;50.198;19.576;2022-08-01T19:49:30;101706.85;;;25.83;51.34
54588;BME280;40484;50.198;19.576;2022-08-01T19:54:57;101709.98;;;25.84;50.94
54588;BME280;40484;50.198;19.576;2022-08-01T20:00:00;101713.82;;;25.71;50.88
54588;BME280;40484;50.198;19.576;2022-08-01T20:05:02;101714.52;;;25.61;50.67
54588;BME280;40484;50.198;19.576;2022-08-01T20:10:04;101719.64;;;25.56;50.83
54588;BME280;40484;50.198;19.576;2022-08-01T20:15:06;101724.85;;;25.54;50.86
54588;BME280;40484;50.198;19.576;2022-08-01T20:20:09;101731.26;;;25.50;50.72
54588;BME280;40484;50.198;19.576;2022-08-01T20:25:11;101742.35;;;25.40;50.82
54588;BME280;40484;50.198;19.576;2022-08-01T20:30:13;101738.99;;;24.83;51.99
